sensor_id;sensor_type;location;lat;lon;timestamp;pressure;altitude;pressure_sealevel;temperature;humidity
60642;BME280;46837;52.446;-1.930;2022-09-28T00:00:09;98667.82;;;9.11;80.38
60642;BME280;46837;52.446;-1.930;2022-09-28T00:01:17;98664.65;;;9.08;80.39
60642;BME280;46837;52.446;-1.930;2022-09-28T00:02:09;98669.74;;;9.06;80.45
60642;BME280;46837;52.446;-1.930;2022-09-28T00:03:09;98667.55;;;9.07;80.50
60642;BME280;46837;52.446;-1.930;2022-09-28T00:04:09;98665.30;;;9.05;80.41
60642;BME280;46837;52.446;-1.930;2022-09-28T00:05:09;98668.48;;;9.03;80.46
60642;BME280;46837;52.446;-1.930;2022-09-28T00:06:09;98670.77;;;9.02;80.46
60642;BME280;46837;52.446;-1.930;2022-09-28T00:07:09;98667.61;;;9.03;80.44
60642;BME280;46837;52.446;-1.930;2022-09-28T00:08:09;98671.04;;;9.03;80.40
60642;BME280;46837;52.446;-1.930;2022-09-28T00:09:09;98666.06;;;9.01;80.45
60642;BME280;46837;52.446;-1.930;2022-09-28T00:10:09;98672.71;;;9.01;80.45
60642;BME280;46837;52.446;-1.930;2022-09-28T00:11:11;98668.69;;;9.00;80.44
60642;BME280;46837;52.446;-1.930;2022-09-28T00:12:09;98672.71;;;8.98;80.49
60642;BME280;46837;52.446;-1.930;2022-09-28T00:13:09;98671.52;;;8.97;80.53
60642;BME280;46837;52.446;-1.930;2022-09-28T00:14:09;98671.46;;;8.98;80.49
60642;BME280;46837;52.446;-1.930;2022-09-28T00:15:09;98672.45;;;9.00;80.37
60642;BME280;46837;52.446;-1.930;2022-09-28T00:16:14;98670.44;;;8.99;80.36
60642;BME280;46837;52.446;-1.930;2022-09-28T00:17:09;98668.68;;;8.98;80.39
60642;BME280;46837;52.446;-1.930;2022-09-28T00:18:09;98670.53;;;8.98;80.40
60642;BME280;46837;52.446;-1.930;2022-09-28T00:19:09;98671.12;;;8.98;80.34
60642;BME280;46837;52.446;-1.930;2022-09-28T00:20:09;98669.83;;;8.97;80.41
60642;BME280;46837;52.446;-1.930;2022-09-28T00:21:10;98669.40;;;8.96;80.42
60642;BME280;46837;52.446;-1.930;2022-09-28T00:22:09;98670.54;;;8.93;80.43
60642;BME280;46837;52.446;-1.930;2022-09-28T00:23:09;98672.71;;;8.93;80.55
60642;BME280;46837;52.446;-1.930;2022-09-28T00:24:13;98670.69;;;8.94;80.42
60642;BME280;46837;52.446;-1.930;2022-09-28T00:25:09;98675.98;;;8.97;80.33
60642;BME280;46837;52.446;-1.930;2022-09-28T00:26:09;98675.10;;;8.94;80.31
60642;BME280;46837;52.446;-1.930;2022-09-28T00:27:09;98676.47;;;8.94;80.38
60642;BME280;46837;52.446;-1.930;2022-09-28T00:28:09;98675.98;;;8.94;80.40
60642;BME280;46837;52.446;-1.930;2022-09-28T00:29:14;98675.51;;;8.92;80.48
60642;BME280;46837;52.446;-1.930;2022-09-28T00:30:09;98680.78;;;8.93;80.41
60642;BME280;46837;52.446;-1.930;2022-09-28T00:31:09;98672.89;;;8.92;80.37
60642;BME280;46837;52.446;-1.930;2022-09-28T00:32:11;98679.91;;;8.93;80.40
60642;BME280;46837;52.446;-1.930;2022-09-28T00:33:09;98677.24;;;8.93;80.35
60642;BME280;46837;52.446;-1.930;2022-09-28T00:34:09;98674.99;;;8.91;80.48
60642;BME280;46837;52.446;-1.930;2022-09-28T00:35:09;98674.89;;;8.85;80.50
60642;BME280;46837;52.446;-1.930;2022-09-28T00:36:09;98674.12;;;8.87;80.73
60642;BME280;46837;52.446;-1.930;2022-09-28T00:37:09;98672.59;;;8.87;80.61
60642;BME280;46837;52.446;-1.930;2022-09-28T00:38:11;98672.39;;;8.89;80.54
60642;BME280;46837;52.446;-1.930;2022-09-28T00:39:09;98668.37;;;8.88;80.52
60642;BME280;46837;52.446;-1.930;2022-09-28T00:40:09;98669.23;;;8.89;80.38
60642;BME280;46837;52.446;-1.930;2022-09-28T00:41:10;98668.73;;;8.90;80.36
60642;BME280;46837;52.446;-1.930;2022-09-28T00:43:19;98669.50;;;8.89;80.38
60642;BME280;46837;52.446;-1.930;2022-09-28T00:45:10;98672.37;;;8.88;80.41
60642;BME280;46837;52.446;-1.930;2022-09-28T00:46:14;98672.00;;;8.87;80.42
60642;BME280;46837;52.446;-1.930;2022-09-28T00:48:09;98675.38;;;8.81;80.53
60642;BME280;46837;52.446;-1.930;2022-09-28T00:49:12;98674.94;;;8.82;80.67
60642;BME280;46837;52.446;-1.930;2022-09-28T00:50:14;98674.12;;;8.83;80.60
60642;BME280;46837;52.446;-1.930;2022-09-28T00:51:10;98671.82;;;8.84;80.54
60642;BME280;46837;52.446;-1.930;2022-09-28T00:52:13;98674.88;;;8.83;80.62
60642;BME280;46837;52.446;-1.930;2022-09-28T00:54:09;98675.33;;;8.86;80.47
60642;BME280;46837;52.446;-1.930;2022-09-28T00:55:16;98677.34;;;8.85;80.49
60642;BME280;46837;52.446;-1.930;2022-09-28T00:56:11;98677.23;;;8.82;80.61
60642;BME280;46837;52.446;-1.930;2022-09-28T00:57:09;98677.80;;;8.81;80.71
60642;BME280;46837;52.446;-1.930;2022-09-28T00:58:10;98678.08;;;8.80;80.78
60642;BME280;46837;52.446;-1.930;2022-09-28T00:59:09;98678.86;;;8.82;80.67
60642;BME280;46837;52.446;-1.930;2022-09-28T01:00:09;98682.46;;;8.81;80.65
60642;BME280;46837;52.446;-1.930;2022-09-28T01:01:09;98682.19;;;8.82;80.72
60642;BME280;46837;52.446;-1.930;2022-09-28T01:02:09;98680.99;;;8.81;80.70
60642;BME280;46837;52.446;-1.930;2022-09-28T01:03:09;98680.80;;;8.80;80.80
60642;BME280;46837;52.446;-1.930;2022-09-28T01:04:09;98683.17;;;8.82;80.73
60642;BME280;46837;52.446;-1.930;2022-09-28T01:05:09;98683.69;;;8.81;80.74
60642;BME280;46837;52.446;-1.930;2022-09-28T01:06:09;98679.77;;;8.81;80.70
60642;BME280;46837;52.446;-1.930;2022-09-28T01:07:09;98684.35;;;8.80;80.76
60642;BME280;46837;52.446;-1.930;2022-09-28T01:08:09;98680.26;;;8.80;80.76
60642;BME280;46837;52.446;-1.930;2022-09-28T01:09:09;98685.18;;;8.78;80.81
60642;BME280;46837;52.446;-1.930;2022-09-28T01:10:09;98682.29;;;8.78;80.88
60642;BME280;46837;52.446;-1.930;2022-09-28T01:11:09;98676.84;;;8.78;80.87
60642;BME280;46837;52.446;-1.930;2022-09-28T01:12:09;98681.79;;;8.76;81.05
60642;BME280;46837;52.446;-1.930;2022-09-28T01:13:10;98679.71;;;8.76;81.01
60642;BME280;46837;52.446;-1.930;2022-09-28T01:14:09;98675.23;;;8.77;80.89
60642;BME280;46837;52.446;-1.930;2022-09-28T01:15:09;98676.66;;;8.76;80.95
60642;BME280;46837;52.446;-1.930;2022-09-28T01:17:13;98677.06;;;8.78;80.86
60642;BME280;46837;52.446;-1.930;2022-09-28T01:19:17;98672.30;;;8.77;80.88
60642;BME280;46837;52.446;-1.930;2022-09-28T01:20:22;98675.65;;;8.78;80.82
60642;BME280;46837;52.446;-1.930;2022-09-28T01:21:18;98674.06;;;8.78;80.83
60642;BME280;46837;52.446;-1.930;2022-09-28T01:24:22;98679.55;;;8.76;81.03
60642;BME280;46837;52.446;-1.930;2022-09-28T01:27:19;98675.48;;;8.74;81.11
60642;BME280;46837;52.446;-1.930;2022-09-28T01:28:13;98675.02;;;8.73;81.23
60642;BME280;46837;52.446;-1.930;2022-09-28T01:30:11;98670.60;;;8.70;81.46
60642;BME280;46837;52.446;-1.930;2022-09-28T01:31:14;98673.07;;;8.68;81.66
60642;BME280;46837;52.446;-1.930;2022-09-28T01:32:20;98675.73;;;8.67;81.73
60642;BME280;46837;52.446;-1.930;2022-09-28T01:33:11;98674.51;;;8.67;81.75
60642;BME280;46837;52.446;-1.930;2022-09-28T01:34:13;98672.29;;;8.69;81.71
60642;BME280;46837;52.446;-1.930;2022-09-28T01:37:10;98668.89;;;8.70;81.90
60642;BME280;46837;52.446;-1.930;2022-09-28T01:39:11;98671.01;;;8.70;82.08
60642;BME280;46837;52.446;-1.930;2022-09-28T01:40:09;98669.32;;;8.71;82.06
60642;BME280;46837;52.446;-1.930;2022-09-28T01:41:09;98671.80;;;8.70;82.12
60642;BME280;46837;52.446;-1.930;2022-09-28T01:42:12;98670.68;;;8.70;82.18
60642;BME280;46837;52.446;-1.930;2022-09-28T01:44:09;98665.44;;;8.68;82.28
60642;BME280;46837;52.446;-1.930;2022-09-28T01:45:15;98666.83;;;8.67;82.40
60642;BME280;46837;52.446;-1.930;2022-09-28T01:46:19;98666.95;;;8.66;82.47
60642;BME280;46837;52.446;-1.930;2022-09-28T01:47:10;98664.44;;;8.66;82.58
60642;BME280;46837;52.446;-1.930;2022-09-28T01:48:10;98665.48;;;8.65;82.67
60642;BME280;46837;52.446;-1.930;2022-09-28T01:49:11;98665.66;;;8.67;82.57
60642;BME280;46837;52.446;-1.930;2022-09-28T01:50:12;98667.56;;;8.68;82.45
60642;BME280;46837;52.446;-1.930;2022-09-28T01:51:11;98663.53;;;8.69;82.44
60642;BME280;46837;52.446;-1.930;2022-09-28T01:52:17;98666.63;;;8.69;82.36
60642;BME280;46837;52.446;-1.930;2022-09-28T01:54:13;98663.16;;;8.71;82.23
60642;BME280;46837;52.446;-1.930;2022-09-28T01:55:19;98659.99;;;8.72;82.20
60642;BME280;46837;52.446;-1.930;2022-09-28T01:57:20;98660.55;;;8.70;82.30
60642;BME280;46837;52.446;-1.930;2022-09-28T01:58:14;98660.58;;;8.70;82.45
60642;BME280;46837;52.446;-1.930;2022-09-28T02:00:12;98665.82;;;8.72;82.31
60642;BME280;46837;52.446;-1.930;2022-09-28T02:02:13;98663.96;;;8.70;82.44
60642;BME280;46837;52.446;-1.930;2022-09-28T02:05:13;98659.52;;;8.71;82.42
60642;BME280;46837;52.446;-1.930;2022-09-28T02:06:15;98657.88;;;8.71;82.36
60642;BME280;46837;52.446;-1.930;2022-09-28T02:07:14;98662.71;;;8.65;82.79
60642;BME280;46837;52.446;-1.930;2022-09-28T02:09:10;98659.29;;;8.67;82.72
60642;BME280;46837;52.446;-1.930;2022-09-28T02:10:15;98664.72;;;8.69;82.59
60642;BME280;46837;52.446;-1.930;2022-09-28T02:11:12;98661.07;;;8.69;82.52
60642;BME280;46837;52.446;-1.930;2022-09-28T02:12:22;98664.00;;;8.66;82.69
60642;BME280;46837;52.446;-1.930;2022-09-28T02:13:14;98660.76;;;8.68;82.63
60642;BME280;46837;52.446;-1.930;2022-09-28T02:14:09;98659.55;;;8.69;82.52
60642;BME280;46837;52.446;-1.930;2022-09-28T02:15:16;98659.00;;;8.70;82.53
60642;BME280;46837;52.446;-1.930;2022-09-28T02:16:18;98658.13;;;8.69;82.50
60642;BME280;46837;52.446;-1.930;2022-09-28T02:17:09;98659.27;;;8.70;82.45
60642;BME280;46837;52.446;-1.930;2022-09-28T02:18:09;98659.35;;;8.71;82.41
60642;BME280;46837;52.446;-1.930;2022-09-28T02:20:09;98657.16;;;8.69;82.37
60642;BME280;46837;52.446;-1.930;2022-09-28T02:21:15;98658.68;;;8.68;82.39
60642;BME280;46837;52.446;-1.930;2022-09-28T02:23:09;98658.95;;;8.69;82.31
60642;BME280;46837;52.446;-1.930;2022-09-28T02:24:16;98658.20;;;8.68;82.39
60642;BME280;46837;52.446;-1.930;2022-09-28T02:26:11;98654.86;;;8.65;82.51
60642;BME280;46837;52.446;-1.930;2022-09-28T02:27:13;98653.94;;;8.65;82.53
60642;BME280;46837;52.446;-1.930;2022-09-28T02:28:10;98656.78;;;8.64;82.59
60642;BME280;46837;52.446;-1.930;2022-09-28T02:29:09;98657.13;;;8.63;82.63
60642;BME280;46837;52.446;-1.930;2022-09-28T02:30:09;98658.14;;;8.64;82.55
60642;BME280;46837;52.446;-1.930;2022-09-28T02:31:09;98659.55;;;8.65;82.50
60642;BME280;46837;52.446;-1.930;2022-09-28T02:32:09;98654.27;;;8.65;82.59
60642;BME280;46837;52.446;-1.930;2022-09-28T02:34:09;98657.30;;;8.63;82.68
60642;BME280;46837;52.446;-1.930;2022-09-28T02:35:12;98653.54;;;8.63;82.71
60642;BME280;46837;52.446;-1.930;2022-09-28T02:36:09;98652.26;;;8.64;82.64
60642;BME280;46837;52.446;-1.930;2022-09-28T02:37:09;98655.18;;;8.62;82.70
60642;BME280;46837;52.446;-1.930;2022-09-28T02:38:09;98654.25;;;8.58;83.04
60642;BME280;46837;52.446;-1.930;2022-09-28T02:39:13;98652.45;;;8.58;83.10
60642;BME280;46837;52.446;-1.930;2022-09-28T02:40:19;98653.78;;;8.60;82.99
60642;BME280;46837;52.446;-1.930;2022-09-28T02:42:19;98660.73;;;8.63;82.71
60642;BME280;46837;52.446;-1.930;2022-09-28T02:44:30;98656.71;;;8.61;82.65
60642;BME280;46837;52.446;-1.930;2022-09-28T02:47:15;98656.71;;;8.61;82.62
60642;BME280;46837;52.446;-1.930;2022-09-28T02:54:20;98662.12;;;8.53;82.94
60642;BME280;46837;52.446;-1.930;2022-09-28T03:00:14;98665.05;;;8.49;83.13
60642;BME280;46837;52.446;-1.930;2022-09-28T03:02:17;98664.52;;;8.52;82.96
60642;BME280;46837;52.446;-1.930;2022-09-28T03:04:21;98664.01;;;8.49;82.89
60642;BME280;46837;52.446;-1.930;2022-09-28T03:09:21;98666.86;;;8.51;82.90
60642;BME280;46837;52.446;-1.930;2022-09-28T03:10:18;98667.14;;;8.50;82.91
60642;BME280;46837;52.446;-1.930;2022-09-28T03:11:17;98666.75;;;8.48;83.12
60642;BME280;46837;52.446;-1.930;2022-09-28T03:12:09;98667.95;;;8.46;83.26
60642;BME280;46837;52.446;-1.930;2022-09-28T03:13:09;98665.26;;;8.46;83.28
60642;BME280;46837;52.446;-1.930;2022-09-28T03:14:09;98665.71;;;8.44;83.50
60642;BME280;46837;52.446;-1.930;2022-09-28T03:16:13;98666.57;;;8.44;83.49
60642;BME280;46837;52.446;-1.930;2022-09-28T03:17:09;98668.21;;;8.43;83.71
60642;BME280;46837;52.446;-1.930;2022-09-28T03:18:09;98667.48;;;8.41;83.69
60642;BME280;46837;52.446;-1.930;2022-09-28T03:19:12;98669.23;;;8.42;83.75
60642;BME280;46837;52.446;-1.930;2022-09-28T03:20:09;98668.53;;;8.40;83.85
60642;BME280;46837;52.446;-1.930;2022-09-28T03:21:10;98670.21;;;8.41;83.91
60642;BME280;46837;52.446;-1.930;2022-09-28T03:22:09;98668.07;;;8.39;83.97
60642;BME280;46837;52.446;-1.930;2022-09-28T03:23:09;98672.94;;;8.40;83.97
60642;BME280;46837;52.446;-1.930;2022-09-28T03:24:09;98674.52;;;8.40;84.01
60642;BME280;46837;52.446;-1.930;2022-09-28T03:25:09;98669.46;;;8.39;83.98
60642;BME280;46837;52.446;-1.930;2022-09-28T03:26:10;98671.01;;;8.38;84.16
60642;BME280;46837;52.446;-1.930;2022-09-28T03:27:09;98669.11;;;8.38;84.08
60642;BME280;46837;52.446;-1.930;2022-09-28T03:28:09;98671.09;;;8.40;84.06
60642;BME280;46837;52.446;-1.930;2022-09-28T03:29:09;98671.52;;;8.40;84.04
60642;BME280;46837;52.446;-1.930;2022-09-28T03:30:09;98674.41;;;8.40;83.96
60642;BME280;46837;52.446;-1.930;2022-09-28T03:31:09;98670.15;;;8.41;84.04
60642;BME280;46837;52.446;-1.930;2022-09-28T03:32:09;98672.98;;;8.41;84.05
60642;BME280;46837;52.446;-1.930;2022-09-28T03:33:09;98673.41;;;8.42;83.97
60642;BME280;46837;52.446;-1.930;2022-09-28T03:34:09;98672.78;;;8.44;83.87
60642;BME280;46837;52.446;-1.930;2022-09-28T03:35:09;98672.51;;;8.44;83.82
60642;BME280;46837;52.446;-1.930;2022-09-28T03:36:09;98671.21;;;8.42;83.92
60642;BME280;46837;52.446;-1.930;2022-09-28T03:37:09;98672.07;;;8.44;83.90
60642;BME280;46837;52.446;-1.930;2022-09-28T03:38:09;98674.03;;;8.44;83.92
60642;BME280;46837;52.446;-1.930;2022-09-28T03:39:09;98672.07;;;8.44;83.78
60642;BME280;46837;52.446;-1.930;2022-09-28T03:40:09;98673.48;;;8.45;83.77
60642;BME280;46837;52.446;-1.930;2022-09-28T03:41:09;98674.41;;;8.45;83.69
60642;BME280;46837;52.446;-1.930;2022-09-28T03:42:09;98670.59;;;8.45;83.75
60642;BME280;46837;52.446;-1.930;2022-09-28T03:43:09;98674.10;;;8.47;83.46
60642;BME280;46837;52.446;-1.930;2022-09-28T03:44:09;98674.32;;;8.47;83.37
60642;BME280;46837;52.446;-1.930;2022-09-28T03:45:09;98670.68;;;8.46;83.33
60642;BME280;46837;52.446;-1.930;2022-09-28T03:46:09;98674.08;;;8.45;83.38
60642;BME280;46837;52.446;-1.930;2022-09-28T03:47:09;98669.53;;;8.46;83.42
60642;BME280;46837;52.446;-1.930;2022-09-28T03:48:09;98670.94;;;8.47;83.19
60642;BME280;46837;52.446;-1.930;2022-09-28T03:49:09;98671.79;;;8.45;83.20
60642;BME280;46837;52.446;-1.930;2022-09-28T03:50:09;98669.30;;;8.44;83.25
60642;BME280;46837;52.446;-1.930;2022-09-28T03:51:10;98669.08;;;8.44;83.32
60642;BME280;46837;52.446;-1.930;2022-09-28T03:52:09;98671.19;;;8.45;83.21
60642;BME280;46837;52.446;-1.930;2022-09-28T03:53:09;98671.09;;;8.44;83.23
60642;BME280;46837;52.446;-1.930;2022-09-28T03:54:09;98673.14;;;8.42;83.31
60642;BME280;46837;52.446;-1.930;2022-09-28T03:55:09;98672.34;;;8.44;83.36
60642;BME280;46837;52.446;-1.930;2022-09-28T03:56:11;98673.38;;;8.44;83.18
60642;BME280;46837;52.446;-1.930;2022-09-28T03:57:09;98674.19;;;8.44;83.26
60642;BME280;46837;52.446;-1.930;2022-09-28T03:58:09;98676.15;;;8.45;83.12
60642;BME280;46837;52.446;-1.930;2022-09-28T03:59:09;98677.27;;;8.46;83.00
60642;BME280;46837;52.446;-1.930;2022-09-28T04:00:09;98680.91;;;8.46;82.83
60642;BME280;46837;52.446;-1.930;2022-09-28T04:01:10;98681.67;;;8.46;82.85
60642;BME280;46837;52.446;-1.930;2022-09-28T04:02:09;98682.38;;;8.46;82.75
60642;BME280;46837;52.446;-1.930;2022-09-28T04:03:09;98686.00;;;8.46;82.68
60642;BME280;46837;52.446;-1.930;2022-09-28T04:04:11;98684.48;;;8.44;82.73
60642;BME280;46837;52.446;-1.930;2022-09-28T04:05:09;98683.73;;;8.43;82.66
60642;BME280;46837;52.446;-1.930;2022-09-28T04:06:09;98684.19;;;8.42;82.62
60642;BME280;46837;52.446;-1.930;2022-09-28T04:07:09;98688.01;;;8.40;82.65
60642;BME280;46837;52.446;-1.930;2022-09-28T04:08:09;98689.52;;;8.38;82.75
60642;BME280;46837;52.446;-1.930;2022-09-28T04:09:09;98687.97;;;8.36;82.68
60642;BME280;46837;52.446;-1.930;2022-09-28T04:10:09;98691.73;;;8.36;82.73
60642;BME280;46837;52.446;-1.930;2022-09-28T04:11:09;98691.64;;;8.35;82.75
60642;BME280;46837;52.446;-1.930;2022-09-28T04:12:09;98692.57;;;8.35;82.66
60642;BME280;46837;52.446;-1.930;2022-09-28T04:13:09;98692.26;;;8.33;82.76
60642;BME280;46837;52.446;-1.930;2022-09-28T04:14:09;98694.05;;;8.32;82.84
60642;BME280;46837;52.446;-1.930;2022-09-28T04:15:09;98695.67;;;8.30;82.82
60642;BME280;46837;52.446;-1.930;2022-09-28T04:16:09;98697.52;;;8.30;82.79
60642;BME280;46837;52.446;-1.930;2022-09-28T04:17:09;98695.67;;;8.29;82.78
60642;BME280;46837;52.446;-1.930;2022-09-28T04:18:11;98697.40;;;8.25;82.79
60642;BME280;46837;52.446;-1.930;2022-09-28T04:19:09;98696.85;;;8.27;82.76
60642;BME280;46837;52.446;-1.930;2022-09-28T04:20:09;98693.59;;;8.26;82.72
60642;BME280;46837;52.446;-1.930;2022-09-28T04:21:10;98693.12;;;8.25;82.68
60642;BME280;46837;52.446;-1.930;2022-09-28T04:22:09;98695.15;;;8.23;82.80
60642;BME280;46837;52.446;-1.930;2022-09-28T04:23:09;98692.16;;;8.22;82.73
60642;BME280;46837;52.446;-1.930;2022-09-28T04:24:09;98693.55;;;8.21;82.76
60642;BME280;46837;52.446;-1.930;2022-09-28T04:25:09;98695.79;;;8.20;82.71
60642;BME280;46837;52.446;-1.930;2022-09-28T04:26:18;98697.15;;;8.20;82.70
60642;BME280;46837;52.446;-1.930;2022-09-28T04:27:13;98693.17;;;8.20;82.78
60642;BME280;46837;52.446;-1.930;2022-09-28T04:28:13;98694.32;;;8.18;82.73
60642;BME280;46837;52.446;-1.930;2022-09-28T04:29:13;98693.37;;;8.17;82.81
60642;BME280;46837;52.446;-1.930;2022-09-28T04:30:09;98695.03;;;8.18;82.88
60642;BME280;46837;52.446;-1.930;2022-09-28T04:31:09;98696.83;;;8.18;82.86
60642;BME280;46837;52.446;-1.930;2022-09-28T04:32:09;98695.06;;;8.16;82.89
60642;BME280;46837;52.446;-1.930;2022-09-28T04:33:09;98694.68;;;8.17;82.95
60642;BME280;46837;52.446;-1.930;2022-09-28T04:34:09;98696.81;;;8.15;83.04
60642;BME280;46837;52.446;-1.930;2022-09-28T04:35:09;98696.16;;;8.15;83.01
60642;BME280;46837;52.446;-1.930;2022-09-28T04:36:09;98693.06;;;8.14;82.95
60642;BME280;46837;52.446;-1.930;2022-09-28T04:37:09;98695.20;;;8.14;82.95
60642;BME280;46837;52.446;-1.930;2022-09-28T04:38:09;98695.59;;;8.12;83.15
60642;BME280;46837;52.446;-1.930;2022-09-28T04:39:09;98698.86;;;8.12;83.12
60642;BME280;46837;52.446;-1.930;2022-09-28T04:40:09;98694.65;;;8.09;83.17
60642;BME280;46837;52.446;-1.930;2022-09-28T04:41:09;98694.59;;;8.09;83.25
60642;BME280;46837;52.446;-1.930;2022-09-28T04:42:09;98695.79;;;8.09;83.32
60642;BME280;46837;52.446;-1.930;2022-09-28T04:43:09;98698.51;;;8.10;83.32
60642;BME280;46837;52.446;-1.930;2022-09-28T04:44:09;98697.54;;;8.08;83.32
60642;BME280;46837;52.446;-1.930;2022-09-28T04:45:09;98697.04;;;8.09;83.41
60642;BME280;46837;52.446;-1.930;2022-09-28T04:46:09;98698.24;;;8.09;83.42
60642;BME280;46837;52.446;-1.930;2022-09-28T04:47:09;98698.41;;;8.08;83.50
60642;BME280;46837;52.446;-1.930;2022-09-28T04:48:09;98696.40;;;8.08;83.55
60642;BME280;46837;52.446;-1.930;2022-09-28T04:49:09;98700.64;;;8.08;83.65
60642;BME280;46837;52.446;-1.930;2022-09-28T04:50:09;98698.25;;;8.08;83.61
60642;BME280;46837;52.446;-1.930;2022-09-28T04:51:09;98700.10;;;8.08;83.63
60642;BME280;46837;52.446;-1.930;2022-09-28T04:52:09;98701.21;;;8.07;83.74
60642;BME280;46837;52.446;-1.930;2022-09-28T04:53:09;98700.72;;;8.07;83.72
60642;BME280;46837;52.446;-1.930;2022-09-28T04:54:09;98704.07;;;8.08;83.81
60642;BME280;46837;52.446;-1.930;2022-09-28T04:55:13;98703.66;;;8.06;83.89
60642;BME280;46837;52.446;-1.930;2022-09-28T04:56:10;98701.59;;;8.06;84.15
60642;BME280;46837;52.446;-1.930;2022-09-28T04:57:09;98700.56;;;8.06;84.11
60642;BME280;46837;52.446;-1.930;2022-09-28T04:58:09;98697.68;;;8.06;84.24
60642;BME280;46837;52.446;-1.930;2022-09-28T04:59:09;98694.96;;;8.06;84.56
60642;BME280;46837;52.446;-1.930;2022-09-28T05:00:09;98700.67;;;8.07;84.56
60642;BME280;46837;52.446;-1.930;2022-09-28T05:01:11;98698.11;;;8.07;84.57
60642;BME280;46837;52.446;-1.930;2022-09-28T05:02:09;98698.85;;;8.08;84.68
60642;BME280;46837;52.446;-1.930;2022-09-28T05:03:09;98698.65;;;8.11;84.58
60642;BME280;46837;52.446;-1.930;2022-09-28T05:04:09;98699.38;;;8.10;84.49
60642;BME280;46837;52.446;-1.930;2022-09-28T05:05:09;98697.21;;;8.09;84.58
60642;BME280;46837;52.446;-1.930;2022-09-28T05:06:13;98699.38;;;8.10;84.48
60642;BME280;46837;52.446;-1.930;2022-09-28T05:07:09;98697.67;;;8.11;84.44
60642;BME280;46837;52.446;-1.930;2022-09-28T05:08:09;98700.55;;;8.12;84.34
60642;BME280;46837;52.446;-1.930;2022-09-28T05:09:09;98702.29;;;8.13;84.32
60642;BME280;46837;52.446;-1.930;2022-09-28T05:10:09;98698.15;;;8.12;84.26
60642;BME280;46837;52.446;-1.930;2022-09-28T05:11:10;98699.89;;;8.13;84.24
60642;BME280;46837;52.446;-1.930;2022-09-28T05:12:09;98698.54;;;8.11;84.32
60642;BME280;46837;52.446;-1.930;2022-09-28T05:13:09;98701.31;;;8.11;84.38
60642;BME280;46837;52.446;-1.930;2022-09-28T05:14:09;98696.55;;;8.09;84.49
60642;BME280;46837;52.446;-1.930;2022-09-28T05:15:09;98700.03;;;8.10;84.53
60642;BME280;46837;52.446;-1.930;2022-09-28T05:16:09;98694.16;;;8.10;84.53
60642;BME280;46837;52.446;-1.930;2022-09-28T05:17:09;98696.39;;;8.10;84.44
60642;BME280;46837;52.446;-1.930;2022-09-28T05:18:09;98694.91;;;8.11;84.43
60642;BME280;46837;52.446;-1.930;2022-09-28T05:19:09;98696.63;;;8.12;84.37
60642;BME280;46837;52.446;-1.930;2022-09-28T05:20:09;98694.02;;;8.12;84.36
60642;BME280;46837;52.446;-1.930;2022-09-28T05:21:13;98694.67;;;8.12;84.44
60642;BME280;46837;52.446;-1.930;2022-09-28T05:22:13;98694.12;;;8.13;84.32
60642;BME280;46837;52.446;-1.930;2022-09-28T05:23:11;98691.40;;;8.13;84.24
60642;BME280;46837;52.446;-1.930;2022-09-28T05:24:09;98695.16;;;8.13;84.14
60642;BME280;46837;52.446;-1.930;2022-09-28T05:25:09;98694.24;;;8.11;84.24
60642;BME280;46837;52.446;-1.930;2022-09-28T05:26:09;98694.07;;;8.12;84.19
60642;BME280;46837;52.446;-1.930;2022-09-28T05:27:09;98695.11;;;8.11;84.14
60642;BME280;46837;52.446;-1.930;2022-09-28T05:28:09;98694.21;;;8.09;84.14
60642;BME280;46837;52.446;-1.930;2022-09-28T05:29:09;98696.66;;;8.10;84.35
60642;BME280;46837;52.446;-1.930;2022-09-28T05:30:09;98696.11;;;8.10;84.19
60642;BME280;46837;52.446;-1.930;2022-09-28T05:31:09;98695.05;;;8.11;83.97
60642;BME280;46837;52.446;-1.930;2022-09-28T05:32:09;98695.85;;;8.09;84.04
60642;BME280;46837;52.446;-1.930;2022-09-28T05:33:09;98695.41;;;8.08;84.00
60642;BME280;46837;52.446;-1.930;2022-09-28T05:34:09;98696.26;;;8.07;84.00
60642;BME280;46837;52.446;-1.930;2022-09-28T05:35:09;98695.78;;;8.06;83.92
60642;BME280;46837;52.446;-1.930;2022-09-28T05:36:11;98697.09;;;8.04;83.96
60642;BME280;46837;52.446;-1.930;2022-09-28T05:37:09;98695.12;;;8.06;83.90
60642;BME280;46837;52.446;-1.930;2022-09-28T05:38:09;98693.65;;;8.06;83.90
60642;BME280;46837;52.446;-1.930;2022-09-28T05:39:09;98693.17;;;8.05;83.89
60642;BME280;46837;52.446;-1.930;2022-09-28T05:40:09;98691.05;;;8.04;83.83
60642;BME280;46837;52.446;-1.930;2022-09-28T05:41:09;98691.79;;;8.01;83.91
60642;BME280;46837;52.446;-1.930;2022-09-28T05:42:09;98695.25;;;8.00;83.97
60642;BME280;46837;52.446;-1.930;2022-09-28T05:43:09;98695.57;;;7.99;84.01
60642;BME280;46837;52.446;-1.930;2022-09-28T05:44:09;98694.61;;;7.97;83.93
60642;BME280;46837;52.446;-1.930;2022-09-28T05:45:09;98697.05;;;7.97;83.90
60642;BME280;46837;52.446;-1.930;2022-09-28T05:46:09;98694.57;;;7.96;83.84
60642;BME280;46837;52.446;-1.930;2022-09-28T05:47:09;98693.98;;;7.96;83.86
60642;BME280;46837;52.446;-1.930;2022-09-28T05:48:09;98690.93;;;7.96;83.90
60642;BME280;46837;52.446;-1.930;2022-09-28T05:49:09;98692.95;;;7.95;83.78
60642;BME280;46837;52.446;-1.930;2022-09-28T05:50:09;98688.61;;;7.93;83.81
60642;BME280;46837;52.446;-1.930;2022-09-28T05:51:09;98690.18;;;7.94;83.88
60642;BME280;46837;52.446;-1.930;2022-09-28T05:52:09;98689.61;;;7.93;83.99
60642;BME280;46837;52.446;-1.930;2022-09-28T05:53:09;98689.84;;;7.96;83.98
60642;BME280;46837;52.446;-1.930;2022-09-28T05:54:09;98689.02;;;7.97;83.84
60642;BME280;46837;52.446;-1.930;2022-09-28T05:55:09;98692.46;;;7.94;83.88
60642;BME280;46837;52.446;-1.930;2022-09-28T05:56:09;98690.93;;;7.96;83.97
60642;BME280;46837;52.446;-1.930;2022-09-28T05:57:09;98687.70;;;7.97;83.98
60642;BME280;46837;52.446;-1.930;2022-09-28T05:58:09;98690.79;;;7.99;83.87
60642;BME280;46837;52.446;-1.930;2022-09-28T05:59:09;98691.96;;;8.01;83.78
60642;BME280;46837;52.446;-1.930;2022-09-28T06:00:10;98687.98;;;8.01;83.77
60642;BME280;46837;52.446;-1.930;2022-09-28T06:01:09;98692.06;;;8.01;83.71
60642;BME280;46837;52.446;-1.930;2022-09-28T06:02:09;98690.84;;;7.99;83.78
60642;BME280;46837;52.446;-1.930;2022-09-28T06:03:11;98686.92;;;8.00;83.78
60642;BME280;46837;52.446;-1.930;2022-09-28T06:04:09;98692.09;;;8.00;83.69
60642;BME280;46837;52.446;-1.930;2022-09-28T06:05:09;98690.22;;;8.00;83.59